createdAt,value
2023-02-16T00:00:32.150Z,16.20
2023-02-16T00:03:02.290Z,16.67
2023-02-16T00:05:36.703Z,13.13
2023-02-16T00:08:06.835Z,15.05
2023-02-16T00:10:39.103Z,13.02
2023-02-16T00:13:37.276Z,16.42
2023-02-16T00:16:08.129Z,17.52
2023-02-16T00:18:38.133Z,16.80
2023-02-16T00:21:10.934Z,17.33
2023-02-16T00:23:41.808Z,17.35
2023-02-16T00:26:18.032Z,17.42
2023-02-16T00:28:48.393Z,13.73
2023-02-16T00:31:21.374Z,17.98
2023-02-16T00:33:51.917Z,14.90
2023-02-16T00:36:24.594Z,17.98
2023-02-16T00:38:54.821Z,17.92
2023-02-16T00:41:39.704Z,18.98
2023-02-16T00:44:15.737Z,16.02
2023-02-16T00:46:46.676Z,18.10
2023-02-16T00:49:17.752Z,18.10
2023-02-16T00:51:51.007Z,18.25
2023-02-16T00:54:21.097Z,18.50
2023-02-16T00:56:53.304Z,19.73
2023-02-16T00:59:25.873Z,18.83
2023-02-16T01:01:57.624Z,17.95
2023-02-16T01:04:27.870Z,17.83
2023-02-16T01:07:12.963Z,19.88
2023-02-16T01:09:55.410Z,18.77
2023-02-16T01:12:25.753Z,18.80
2023-02-16T01:14:58.376Z,19.98
2023-02-16T01:17:28.702Z,18.75
2023-02-16T01:19:58.722Z,18.75
2023-02-16T01:22:33.588Z,19.27
2023-02-16T01:25:03.660Z,18.80
2023-02-16T01:27:34.465Z,17.65
2023-02-16T01:30:04.766Z,18.90
2023-02-16T01:32:35.177Z,17.75
2023-02-16T01:35:05.324Z,17.55
2023-02-16T01:37:38.050Z,18.25
2023-02-16T01:40:08.698Z,19.73
2023-02-16T01:42:44.005Z,18.83
2023-02-16T01:45:18.640Z,18.25
2023-02-16T01:47:52.871Z,17.67
2023-02-16T01:50:26.022Z,18.35
2023-02-16T01:53:01.945Z,19.00
2023-02-16T01:55:35.692Z,19.40
2023-02-16T01:58:12.175Z,19.15
2023-02-16T02:01:11.984Z,18.80
2023-02-16T02:03:54.893Z,20.13
2023-02-16T02:06:31.237Z,19.20
2023-02-16T02:09:09.077Z,19.20
2023-02-16T02:14:16.472Z,18.83
2023-02-16T02:16:58.576Z,19.60
2023-02-16T02:19:28.882Z,18.98
2023-02-16T02:22:33.485Z,19.52
2023-02-16T02:25:40.668Z,19.45
2023-02-16T02:28:17.099Z,18.45
2023-02-16T02:30:52.645Z,19.15
2023-02-16T02:33:44.785Z,17.77
2023-02-16T02:36:25.367Z,18.80
2023-02-16T02:39:14.027Z,19.70
2023-02-16T02:42:09.362Z,18.73
2023-02-16T02:44:46.516Z,18.95
2023-02-16T02:47:16.837Z,19.05
2023-02-16T02:49:53.294Z,19.50
2023-02-16T02:52:25.321Z,19.40
2023-02-16T02:55:07.807Z,18.95
2023-02-16T02:57:54.700Z,19.15
2023-02-16T03:00:43.411Z,19.65
2023-02-16T03:03:17.570Z,18.95
2023-02-16T03:05:51.361Z,20.33
2023-02-16T03:08:25.244Z,19.83
2023-02-16T03:11:10.920Z,19.25
2023-02-16T03:13:43.605Z,18.88
2023-02-16T03:16:19.870Z,19.65
2023-02-16T03:19:03.373Z,19.38
2023-02-16T03:21:47.009Z,18.38
2023-02-16T03:24:37.937Z,19.70
2023-02-16T03:29:52.972Z,16.85
2023-02-16T03:32:25.892Z,14.27
2023-02-16T03:34:56.104Z,20.08
2023-02-16T03:37:26.281Z,19.23
2023-02-16T03:40:09.431Z,17.42
2023-02-16T03:42:39.448Z,16.92
2023-02-16T03:45:10.970Z,18.35
2023-02-16T03:47:43.590Z,17.48
2023-02-16T03:50:14.039Z,12.98
2023-02-16T03:52:44.002Z,19.30
2023-02-16T03:55:14.361Z,17.92
2023-02-16T03:57:44.556Z,17.27
2023-02-16T04:00:15.839Z,18.00
2023-02-16T04:05:18.534Z,17.45
2023-02-16T04:07:48.524Z,17.25
2023-02-16T04:10:19.050Z,15.05
2023-02-16T04:12:46.630Z,15.65
2023-02-16T04:15:19.507Z,16.85
2023-02-16T04:17:52.511Z,17.67
2023-02-16T04:20:24.299Z,17.30
2023-02-16T04:22:54.775Z,17.70
2023-02-16T04:25:25.498Z,18.55
2023-02-16T04:27:56.268Z,17.00
2023-02-16T04:30:28.598Z,19.45
2023-02-16T04:33:01.684Z,16.85
2023-02-16T04:35:31.995Z,17.95
2023-02-16T04:38:02.083Z,17.70
2023-02-16T04:40:32.338Z,16.67
2023-02-16T04:43:02.351Z,17.95
2023-02-16T04:45:32.855Z,15.40
2023-02-16T04:48:05.520Z,17.98
2023-02-16T04:50:35.772Z,16.75
2023-02-16T04:53:05.830Z,18.77
2023-02-16T04:55:36.189Z,18.23
2023-02-16T04:58:06.410Z,15.52
2023-02-16T05:00:36.817Z,17.42
2023-02-16T05:03:09.519Z,17.90
2023-02-16T05:05:39.598Z,17.85
2023-02-16T05:08:09.882Z,18.42
2023-02-16T05:10:40.004Z,17.10
2023-02-16T05:13:22.440Z,17.67
2023-02-16T05:15:53.097Z,18.05
2023-02-16T05:18:25.798Z,17.55
2023-02-16T05:21:20.650Z,18.08
2023-02-16T05:23:50.757Z,17.02
2023-02-16T05:26:20.943Z,16.88
2023-02-16T05:28:51.049Z,16.58
2023-02-16T05:31:21.323Z,16.95
2023-02-16T05:33:54.304Z,18.23
2023-02-16T05:36:25.106Z,18.05
2023-02-16T05:38:55.238Z,17.42
2023-02-16T05:41:28.061Z,17.52
2023-02-16T05:43:59.693Z,17.58
2023-02-16T05:46:32.086Z,16.48
2023-02-16T05:49:05.328Z,17.25
2023-02-16T05:51:36.316Z,17.88
2023-02-16T05:54:06.557Z,15.68
2023-02-16T05:56:37.164Z,17.17
2023-02-16T05:59:07.337Z,16.30
2023-02-16T06:01:40.869Z,16.13
2023-02-16T06:04:15.863Z,17.35
2023-02-16T06:06:46.983Z,17.20
2023-02-16T06:09:17.346Z,15.38
2023-02-16T06:11:47.641Z,12.30
2023-02-16T06:14:19.737Z,14.05
2023-02-16T06:16:52.430Z,16.50
2023-02-16T06:19:25.246Z,16.17
2023-02-16T06:21:56.977Z,15.77
2023-02-16T06:24:27.334Z,16.83
2023-02-16T06:26:57.537Z,16.38
2023-02-16T06:29:28.155Z,15.15
2023-02-16T06:31:58.583Z,14.90
2023-02-16T06:34:31.516Z,15.32
2023-02-16T06:37:01.588Z,15.00
2023-02-16T06:39:31.869Z,15.95
2023-02-16T06:42:02.238Z,15.35
2023-02-16T06:44:32.387Z,14.93
2023-02-16T06:47:02.901Z,16.00
2023-02-16T06:49:35.800Z,16.38
2023-02-16T06:52:06.155Z,15.43
2023-02-16T06:54:36.276Z,14.88
2023-02-16T06:57:06.547Z,16.52
2023-02-16T06:59:36.630Z,15.30
2023-02-16T07:02:06.821Z,15.82
2023-02-16T07:04:39.588Z,14.30
2023-02-16T07:07:09.690Z,14.93
2023-02-16T07:09:39.870Z,14.60
2023-02-16T07:12:10.589Z,14.07
2023-02-16T07:14:43.128Z,15.27
2023-02-16T07:17:14.204Z,16.05
2023-02-16T07:19:46.879Z,14.15
2023-02-16T07:22:17.708Z,15.40
2023-02-16T07:24:47.915Z,15.13
2023-02-16T07:27:18.234Z,13.25
2023-02-16T07:29:48.288Z,12.98
2023-02-16T07:32:18.596Z,15.05
2023-02-16T07:34:51.336Z,15.68
2023-02-16T07:37:21.550Z,14.95
2023-02-16T07:39:53.132Z,14.32
2023-02-16T07:42:23.671Z,15.38
2023-02-16T07:44:53.905Z,14.90
2023-02-16T07:47:24.071Z,14.77
2023-02-16T07:49:56.785Z,15.07
2023-02-16T07:52:31.390Z,17.02
2023-02-16T07:55:01.831Z,15.45
2023-02-16T07:57:32.361Z,16.38
2023-02-16T08:00:02.850Z,16.05
2023-02-16T08:02:33.260Z,15.30
2023-02-16T08:05:06.122Z,15.68
2023-02-16T08:07:36.364Z,15.95
2023-02-16T08:10:07.015Z,15.43
2023-02-16T08:12:37.428Z,14.57
2023-02-16T08:15:10.767Z,15.93
2023-02-16T08:17:41.375Z,15.98
2023-02-16T08:20:15.247Z,15.75
2023-02-16T08:22:45.354Z,15.15
2023-02-16T08:25:16.266Z,15.02
2023-02-16T08:27:46.443Z,14.63
2023-02-16T08:30:18.511Z,14.18
2023-02-16T08:32:50.999Z,15.32
2023-02-16T08:35:23.765Z,14.98
2023-02-16T08:37:54.958Z,15.55
2023-02-16T08:40:26.287Z,15.40
2023-02-16T08:42:56.399Z,16.15
2023-02-16T08:45:27.079Z,15.70
2023-02-16T08:47:57.798Z,15.52
2023-02-16T08:50:30.592Z,15.73
2023-02-16T08:53:02.640Z,14.10
2023-02-16T08:55:36.134Z,16.50
2023-02-16T08:58:06.640Z,15.38
2023-02-16T09:00:38.758Z,16.67
2023-02-16T09:03:09.084Z,16.15
2023-02-16T09:05:42.153Z,15.98
2023-02-16T09:08:12.721Z,15.30
2023-02-16T09:10:46.364Z,16.77
2023-02-16T09:13:17.107Z,15.55
2023-02-16T09:15:55.950Z,17.77
2023-02-16T09:18:26.662Z,17.00
2023-02-16T09:21:01.039Z,16.23
2023-02-16T09:23:31.336Z,15.43
2023-02-16T09:26:03.424Z,16.30
2023-02-16T09:28:33.886Z,16.45
2023-02-16T09:31:04.390Z,16.60
2023-02-16T09:33:35.090Z,17.77
2023-02-16T09:36:11.320Z,16.20
2023-02-16T09:38:47.610Z,16.35
2023-02-16T09:41:25.999Z,16.67
2023-02-16T09:44:01.152Z,16.35
2023-02-16T09:46:33.453Z,16.67
2023-02-16T09:49:06.665Z,17.35
2023-02-16T09:51:41.949Z,16.27
2023-02-16T09:54:23.120Z,17.13
2023-02-16T09:56:59.707Z,17.92
2023-02-16T09:59:43.261Z,16.80
2023-02-16T10:02:31.544Z,17.58
2023-02-16T10:05:22.178Z,16.48
2023-02-16T10:08:04.813Z,15.48
2023-02-16T10:10:42.589Z,16.67
2023-02-16T10:15:48.636Z,17.08
2023-02-16T10:18:24.325Z,15.88
2023-02-16T10:20:58.151Z,15.73
2023-02-16T10:23:43.472Z,16.00
2023-02-16T10:26:20.226Z,12.40
2023-02-16T10:28:52.313Z,16.85
2023-02-16T10:31:29.611Z,17.40
2023-02-16T10:34:09.063Z,15.10
2023-02-16T10:36:48.086Z,16.83
2023-02-16T10:39:27.894Z,15.40
2023-02-16T10:42:05.176Z,16.83
2023-02-16T10:44:40.436Z,14.38
2023-02-16T10:47:23.369Z,15.40
2023-02-16T10:49:54.843Z,16.05
2023-02-16T10:52:26.190Z,16.10
2023-02-16T10:54:59.328Z,14.73
2023-02-16T10:57:32.985Z,14.43
2023-02-16T11:00:07.011Z,14.35
2023-02-16T11:02:41.736Z,13.63
2023-02-16T11:05:36.544Z,14.75
2023-02-16T11:08:07.814Z,14.82
2023-02-16T11:10:49.079Z,14.13
2023-02-16T11:13:32.649Z,14.50
2023-02-16T11:16:07.732Z,14.05
2023-02-16T11:18:40.982Z,14.13
2023-02-16T11:21:13.501Z,13.77
2023-02-16T11:23:45.143Z,13.60
2023-02-16T11:26:29.037Z,12.82
2023-02-16T11:29:10.841Z,12.40
2023-02-16T11:31:42.551Z,13.90
2023-02-16T11:34:18.463Z,13.35
2023-02-16T11:36:50.268Z,13.98
2023-02-16T11:39:24.889Z,13.68
2023-02-16T11:42:00.509Z,12.50
2023-02-16T11:44:34.610Z,14.25
2023-02-16T11:47:08.062Z,13.10
2023-02-16T11:49:40.117Z,13.95
2023-02-16T11:52:29.340Z,13.50
2023-02-16T11:55:02.699Z,13.50
2023-02-16T11:57:38.196Z,13.75
2023-02-16T12:00:22.067Z,13.73
2023-02-16T12:03:17.254Z,12.93
2023-02-16T12:05:57.586Z,11.93
2023-02-16T12:08:38.662Z,11.93
2023-02-16T12:11:20.330Z,12.73
2023-02-16T12:14:03.410Z,11.98
2023-02-16T12:16:40.148Z,12.48
2023-02-16T12:19:21.358Z,11.75
2023-02-16T12:21:54.693Z,11.55
2023-02-16T12:24:38.140Z,11.27
2023-02-16T12:27:15.913Z,12.40
2023-02-16T12:29:56.610Z,10.63
2023-02-16T12:32:51.402Z,10.70
2023-02-16T12:35:44.120Z,10.48
2023-02-16T12:38:28.861Z,10.60
2023-02-16T12:41:07.832Z,10.82
2023-02-16T12:43:42.521Z,11.00
2023-02-16T12:46:22.442Z,11.50
2023-02-16T12:48:57.202Z,10.98
2023-02-16T12:51:31.393Z,7.82
2023-02-16T12:54:10.541Z,9.70
2023-02-16T12:56:45.226Z,10.00
2023-02-16T12:59:22.907Z,9.98
2023-02-16T13:01:58.948Z,9.32
2023-02-16T13:04:40.487Z,10.55
2023-02-16T13:07:18.842Z,10.77
2023-02-16T13:09:57.815Z,9.77
2023-02-16T13:12:33.386Z,10.88
2023-02-16T13:15:15.493Z,10.65
2023-02-16T13:17:52.384Z,10.73
2023-02-16T13:20:24.445Z,11.32
2023-02-16T13:23:14.430Z,11.10
2023-02-16T13:26:11.396Z,10.65
2023-02-16T13:28:58.844Z,10.10
2023-02-16T13:31:40.374Z,9.65
2023-02-16T13:34:39.164Z,9.85
2023-02-16T13:37:28.976Z,9.30
2023-02-16T13:40:28.006Z,9.13
2023-02-16T13:43:09.049Z,10.82
2023-02-16T13:45:43.991Z,8.02
2023-02-16T13:48:23.898Z,10.02
2023-02-16T13:51:04.049Z,8.85
2023-02-16T13:53:38.724Z,9.65
2023-02-16T13:56:22.115Z,8.15
2023-02-16T13:58:53.029Z,9.25
2023-02-16T14:04:15.985Z,9.85
2023-02-16T14:06:48.709Z,9.88
2023-02-16T14:09:39.211Z,8.10
2023-02-16T14:15:03.768Z,8.25
2023-02-16T14:17:36.585Z,9.07
2023-02-16T14:20:27.426Z,9.70
2023-02-16T14:23:01.379Z,8.10
2023-02-16T14:25:41.486Z,8.02
2023-02-16T14:28:48.054Z,6.90
2023-02-16T14:31:23.128Z,7.97
2023-02-16T14:34:10.446Z,9.00
2023-02-16T14:37:24.337Z,8.45
2023-02-16T14:40:07.938Z,7.38
2023-02-16T14:42:39.809Z,7.70
2023-02-16T14:45:30.517Z,9.05
2023-02-16T14:48:17.828Z,8.35
2023-02-16T14:51:03.569Z,9.05
2023-02-16T14:54:11.511Z,8.20
2023-02-16T14:56:47.956Z,7.72
2023-02-16T14:59:35.134Z,8.52
2023-02-16T15:02:30.150Z,6.13
2023-02-16T15:05:01.128Z,8.30
2023-02-16T15:10:02.383Z,7.45
2023-02-16T15:12:37.335Z,8.55
2023-02-16T15:15:10.656Z,7.95
2023-02-16T15:17:45.036Z,8.68
2023-02-16T15:20:25.027Z,8.85
2023-02-16T15:22:57.873Z,9.30
2023-02-16T15:25:32.745Z,8.30
2023-02-16T15:28:18.677Z,9.05
2023-02-16T15:30:52.442Z,9.48
2023-02-16T15:33:38.825Z,8.32
2023-02-16T15:36:13.555Z,8.60
2023-02-16T15:38:46.428Z,8.57
2023-02-16T15:41:18.609Z,9.18
2023-02-16T15:43:53.775Z,8.75
2023-02-16T15:46:29.006Z,9.15
2023-02-16T15:48:59.385Z,8.50
2023-02-16T15:51:32.500Z,9.07
2023-02-16T15:54:04.917Z,8.90
2023-02-16T15:56:42.412Z,7.32
2023-02-16T15:59:32.914Z,8.93
2023-02-16T16:02:13.472Z,8.65
2023-02-16T16:04:45.778Z,8.68
2023-02-16T16:07:18.057Z,8.10
2023-02-16T16:09:49.250Z,8.05
2023-02-16T16:12:22.059Z,8.00
2023-02-16T16:14:58.501Z,6.80
2023-02-16T16:17:32.063Z,6.50
2023-02-16T16:20:19.877Z,7.57
2023-02-16T16:22:50.168Z,6.20
2023-02-16T16:25:43.455Z,7.32
2023-02-16T16:28:17.643Z,5.72
2023-02-16T16:30:50.435Z,7.57
2023-02-16T16:33:20.636Z,7.25
2023-02-16T16:35:52.638Z,8.20
2023-02-16T16:38:27.836Z,7.57
2023-02-16T16:41:00.527Z,8.38
2023-02-16T16:43:32.414Z,8.23
2023-02-16T16:46:21.846Z,8.38
2023-02-16T16:48:55.181Z,7.70
2023-02-16T16:51:40.857Z,8.77
2023-02-16T16:54:14.585Z,7.35
2023-02-16T16:56:45.108Z,8.15
2023-02-16T16:59:15.433Z,8.48
2023-02-16T17:01:50.688Z,7.97
2023-02-16T17:04:22.345Z,8.38
2023-02-16T17:06:52.606Z,7.50
2023-02-16T17:09:23.693Z,8.50
2023-02-16T17:14:29.819Z,8.65
2023-02-16T17:17:02.558Z,10.18
2023-02-16T17:19:33.149Z,8.52
2023-02-16T17:22:04.221Z,9.27
2023-02-16T17:27:04.300Z,8.10
2023-02-16T17:29:34.716Z,8.30
2023-02-16T17:32:08.249Z,9.23
2023-02-16T17:34:38.722Z,9.68
2023-02-16T17:37:10.266Z,9.15
2023-02-16T17:39:40.398Z,9.25
2023-02-16T17:42:16.723Z,8.35
2023-02-16T17:44:47.071Z,8.45
2023-02-16T17:47:20.341Z,8.55
2023-02-16T17:49:50.407Z,6.47
2023-02-16T17:52:20.494Z,8.07
2023-02-16T17:54:50.632Z,9.00
2023-02-16T17:57:21.293Z,7.28
2023-02-16T17:59:54.386Z,8.07
2023-02-16T18:02:29.454Z,8.65
2023-02-16T18:04:59.577Z,8.65
2023-02-16T18:07:30.324Z,8.68
2023-02-16T18:10:00.664Z,8.55
2023-02-16T18:12:30.844Z,8.90
2023-02-16T18:15:00.873Z,11.40
2023-02-16T18:17:33.717Z,9.68
2023-02-16T18:20:04.543Z,9.70
2023-02-16T18:22:34.679Z,9.20
2023-02-16T18:25:04.850Z,10.60
2023-02-16T18:27:34.929Z,10.13
2023-02-16T18:30:05.341Z,9.13
2023-02-16T18:32:38.079Z,9.13
2023-02-16T18:35:09.039Z,11.30
2023-02-16T18:37:39.590Z,11.27
2023-02-16T18:40:13.800Z,9.82
2023-02-16T18:42:44.306Z,9.93
2023-02-16T18:45:14.809Z,10.25
2023-02-16T18:47:47.712Z,11.27
2023-02-16T18:50:17.989Z,10.10
2023-02-16T18:52:48.289Z,10.88
2023-02-16T18:55:18.961Z,10.15
2023-02-16T18:57:49.289Z,9.68
2023-02-16T19:00:21.958Z,11.23
2023-02-16T19:02:55.404Z,8.02
2023-02-16T19:05:25.989Z,9.38
2023-02-16T19:07:56.092Z,10.38
2023-02-16T19:10:26.705Z,10.18
2023-02-16T19:12:56.828Z,11.02
2023-02-16T19:15:27.186Z,11.93
2023-02-16T19:17:59.935Z,13.75
2023-02-16T19:20:31.016Z,15.07
2023-02-16T19:25:31.488Z,11.63
2023-02-16T19:28:01.762Z,14.15
2023-02-16T19:30:32.012Z,15.25
2023-02-16T19:33:04.832Z,12.70
2023-02-16T19:35:35.381Z,11.93
2023-02-16T19:38:05.503Z,14.55
2023-02-16T19:40:35.712Z,10.82
2023-02-16T19:43:06.006Z,11.48
2023-02-16T19:45:41.512Z,10.95
2023-02-16T19:48:14.160Z,8.80
2023-02-16T19:50:44.575Z,10.07
2023-02-16T19:53:14.686Z,8.13
2023-02-16T19:55:45.663Z,8.20
2023-02-16T19:58:15.744Z,7.95
2023-02-16T20:00:46.137Z,8.15
2023-02-16T20:03:19.318Z,8.63
2023-02-16T20:05:49.711Z,8.27
2023-02-16T20:08:20.308Z,8.20
2023-02-16T20:10:50.926Z,7.38
2023-02-16T20:13:20.988Z,6.60
2023-02-16T20:15:53.955Z,8.18
2023-02-16T20:18:26.678Z,7.82
2023-02-16T20:21:01.932Z,7.38
2023-02-16T20:23:32.709Z,7.88
2023-02-16T20:26:03.440Z,7.05
2023-02-16T20:28:33.859Z,6.55
2023-02-16T20:31:04.723Z,6.50
2023-02-16T20:33:40.017Z,6.15
2023-02-16T20:36:10.589Z,6.32
2023-02-16T20:38:41.675Z,6.38
2023-02-16T20:43:42.049Z,6.45
2023-02-16T20:46:14.262Z,5.97
2023-02-16T20:48:50.118Z,5.45
2023-02-16T20:51:22.464Z,5.65
2023-02-16T20:53:53.075Z,4.03
2023-02-16T20:56:25.736Z,4.05
2023-02-16T20:58:57.442Z,5.00
2023-02-16T21:01:29.476Z,4.55
2023-02-16T21:04:03.414Z,3.55
2023-02-16T21:06:33.685Z,2.90
2023-02-16T21:09:03.975Z,3.85
2023-02-16T21:11:34.309Z,3.22
2023-02-16T21:14:05.039Z,2.85
2023-02-16T21:16:35.745Z,2.67
2023-02-16T21:19:20.893Z,2.30
2023-02-16T21:21:53.079Z,3.92
2023-02-16T21:24:23.224Z,3.15
2023-02-16T21:26:53.420Z,3.60
2023-02-16T21:29:23.495Z,2.65
2023-02-16T21:31:53.986Z,3.25
2023-02-16T21:34:26.760Z,3.55
2023-02-16T21:36:56.883Z,3.55
2023-02-16T21:39:47.593Z,3.30
2023-02-16T21:45:05.921Z,3.42
2023-02-16T21:47:48.470Z,3.33
2023-02-16T21:50:22.515Z,3.15
2023-02-16T21:52:52.837Z,2.90
2023-02-16T21:55:35.424Z,3.47
2023-02-16T21:58:08.128Z,4.03
2023-02-16T22:00:38.659Z,2.95
2023-02-16T22:03:09.531Z,4.20
2023-02-16T22:05:42.285Z,3.65
2023-02-16T22:08:14.352Z,4.18
2023-02-16T22:10:44.611Z,3.65
2023-02-16T22:13:15.296Z,3.17
2023-02-16T22:15:49.070Z,3.42
2023-02-16T22:18:34.264Z,3.10
2023-02-16T22:24:52.016Z,3.38
2023-02-16T22:30:28.413Z,2.88
2023-02-16T22:32:58.500Z,3.15
2023-02-16T22:35:28.772Z,3.00
2023-02-16T22:38:01.564Z,3.97
2023-02-16T22:40:31.960Z,3.78
2023-02-16T22:43:02.405Z,4.70
2023-02-16T22:45:36.600Z,4.93
2023-02-16T22:48:06.908Z,5.53
2023-02-16T22:50:37.410Z,5.13
2023-02-16T22:53:10.420Z,3.90
2023-02-16T22:55:47.983Z,4.18
2023-02-16T23:00:51.087Z,3.70
2023-02-16T23:03:22.007Z,4.00
2023-02-16T23:05:58.259Z,5.30
2023-02-16T23:08:47.697Z,5.68
2023-02-16T23:11:17.864Z,5.68
2023-02-16T23:13:54.413Z,6.50
2023-02-16T23:16:27.611Z,6.43
2023-02-16T23:19:04.993Z,6.63
2023-02-16T23:21:36.187Z,5.65
2023-02-16T23:24:09.372Z,5.43
2023-02-16T23:26:39.518Z,4.60
2023-02-16T23:29:10.113Z,4.63
2023-02-16T23:31:42.115Z,4.47
2023-02-16T23:34:12.694Z,4.03
2023-02-16T23:36:43.135Z,3.13
2023-02-16T23:39:18.164Z,3.90
2023-02-16T23:41:48.486Z,2.85
2023-02-16T23:44:19.003Z,2.47
2023-02-16T23:46:50.973Z,3.35
2023-02-16T23:49:21.127Z,2.50
2023-02-16T23:51:51.395Z,2.35
2023-02-16T23:54:24.155Z,2.35
2023-02-16T23:57:04.422Z,2.03
2023-02-16T23:59:34.574Z,2.00
